Time;durP1;ratioP1;P1;durP2;ratioP2;P2;SDS_P1;SDS_P2;PMS_P1;PMS_P2;Temp;Humidity;BMP_temperature;BMP_pressure;BME280_temperature;BME280_humidity;BME280_pressure;Samples;Min_cycle;Max_cycle;Signal;HPM_P1;HPM_P2
2021/08/29 00:04:49;;;;;;;17.20;9.90;;;;;;;16.01;66.22;98780.99;232224;1211;139649;-61
2021/08/29 00:09:52;;;;;;;17.10;10.40;;;;;;;15.99;66.15;98780.93;232065;1211;138818;-61
2021/08/29 00:14:55;;;;;;;20.10;11.00;;;;;;;16.00;66.55;98780.45;232205;1211;139729;-61
2021/08/29 00:19:59;;;;;;;15.80;10.90;;;;;;;16.01;66.41;98777.02;232229;1211;138627;-62
2021/08/29 00:25:02;;;;;;;18.40;11.20;;;;;;;16.00;66.69;98771.41;232195;1211;139281;-61
2021/08/29 00:30:07;;;;;;;17.10;10.00;;;;;;;15.96;66.40;98767.81;232176;1211;138781;-62
2021/08/29 00:35:10;;;;;;;15.80;10.00;;;;;;;15.92;66.54;98768.31;232214;1211;141289;-60
2021/08/29 00:40:18;;;;;;;17.80;10.60;;;;;;;15.90;66.48;98769.73;232126;1211;139921;-60
2021/08/29 00:45:23;;;;;;;19.10;10.80;;;;;;;15.88;66.53;98766.39;232185;1211;139277;-60
2021/08/29 00:50:27;;;;;;;15.70;11.00;;;;;;;15.86;66.52;98759.91;232030;1211;140514;-60
2021/08/29 00:55:31;;;;;;;14.20;10.10;;;;;;;15.84;66.58;98759.70;232238;1211;139930;-60
2021/08/29 01:00:41;;;;;;;18.40;10.70;;;;;;;15.77;66.61;98755.31;232207;1211;138750;-61
2021/08/29 01:06:10;;;;;;;18.60;10.10;;;;;;;15.73;66.47;98755.17;232203;1211;138534;-61
2021/08/29 01:11:43;;;;;;;14.30;9.80;;;;;;;15.71;66.55;98757.45;232205;1211;139443;-60
2021/08/29 01:16:49;;;;;;;16.70;10.90;;;;;;;15.76;66.88;98754.14;232030;1211;139485;-61
2021/08/29 01:21:53;;;;;;;16.50;9.90;;;;;;;15.79;66.81;98756.20;231777;1211;141581;-61
2021/08/29 01:27:12;;;;;;;15.60;9.80;;;;;;;15.79;66.89;98746.36;232263;1211;138976;-61
2021/08/29 01:32:16;;;;;;;19.80;10.70;;;;;;;15.75;66.96;98744.26;232292;1211;138626;-62
2021/08/29 01:37:27;;;;;;;15.40;9.80;;;;;;;15.66;66.79;98740.90;232213;1211;138836;-60
2021/08/29 01:42:31;;;;;;;15.40;9.60;;;;;;;15.63;66.85;98740.45;231974;1210;139970;-61
2021/08/29 01:47:38;;;;;;;16.60;9.50;;;;;;;15.60;67.03;98732.98;232069;1211;141359;-64
2021/08/29 01:52:42;;;;;;;13.80;9.50;;;;;;;15.62;67.18;98731.60;231980;1211;139181;-62
2021/08/29 01:58:08;;;;;;;18.70;10.20;;;;;;;15.60;67.11;98732.48;232144;1211;139235;-61
2021/08/29 02:03:14;;;;;;;13.80;8.80;;;;;;;15.57;67.20;98725.95;232302;1211;139057;-61
2021/08/29 02:08:25;;;;;;;17.80;9.90;;;;;;;15.49;67.35;98722.13;231944;1211;138084;-61
2021/08/29 02:13:33;;;;;;;14.20;8.60;;;;;;;15.45;67.33;98721.61;232134;1211;139186;-62
2021/08/29 02:18:37;;;;;;;16.20;8.90;;;;;;;15.47;67.44;98720.61;231848;1211;139349;-60
2021/08/29 02:23:40;;;;;;;17.90;9.00;;;;;;;15.43;67.38;98720.05;232176;1211;140012;-61
2021/08/29 02:28:44;;;;;;;12.40;8.50;;;;;;;15.41;67.63;98720.60;232147;1211;138711;-60
2021/08/29 02:33:48;;;;;;;13.70;9.20;;;;;;;15.40;67.52;98715.41;232136;1211;139609;-60
2021/08/29 02:38:53;;;;;;;12.20;8.30;;;;;;;15.43;67.59;98711.07;232139;1211;139032;-60
2021/08/29 02:43:59;;;;;;;15.30;7.90;;;;;;;15.44;67.62;98706.90;232183;1211;139421;-60
2021/08/29 02:49:05;;;;;;;12.30;7.90;;;;;;;15.45;67.79;98709.64;232174;1211;139975;-61
2021/08/29 02:54:11;;;;;;;18.50;9.10;;;;;;;15.47;67.73;98709.65;232162;1211;139209;-59
2021/08/29 02:59:16;;;;;;;13.70;9.20;;;;;;;15.50;67.92;98708.63;232226;1211;138775;-61
2021/08/29 03:04:19;;;;;;;17.00;9.80;;;;;;;15.55;67.89;98717.34;232107;1211;139118;-61
2021/08/29 03:09:23;;;;;;;12.80;9.30;;;;;;;15.57;67.96;98724.31;232206;1211;140379;-61
2021/08/29 03:14:27;;;;;;;12.90;8.40;;;;;;;15.57;68.22;98731.07;232072;1211;139324;-61
2021/08/29 03:19:32;;;;;;;12.50;8.40;;;;;;;15.62;68.31;98734.08;232088;1210;139137;-60
2021/08/29 03:24:53;;;;;;;17.00;9.20;;;;;;;15.61;68.23;98726.66;232216;1211;138894;-60
2021/08/29 03:29:56;;;;;;;15.40;8.80;;;;;;;15.62;68.20;98722.47;232186;1210;140964;-61
2021/08/29 03:35:02;;;;;;;15.60;9.70;;;;;;;15.63;68.26;98708.83;232248;1211;139485;-59
2021/08/29 03:40:10;;;;;;;12.80;8.70;;;;;;;15.60;68.33;98705.86;232038;1211;139159;-61
2021/08/29 03:45:14;;;;;;;13.10;9.40;;;;;;;15.56;68.19;98705.65;232124;1211;139700;-60
2021/08/29 03:50:18;;;;;;;13.40;9.30;;;;;;;15.56;68.33;98703.82;231974;1211;139872;-61
2021/08/29 03:55:22;;;;;;;13.20;9.60;;;;;;;15.56;68.37;98699.52;232107;1211;138608;-60
2021/08/29 04:00:29;;;;;;;14.70;10.40;;;;;;;15.56;68.53;98710.32;232060;1211;139098;-60
2021/08/29 04:05:40;;;;;;;16.80;10.40;;;;;;;15.53;68.56;98714.83;232107;1208;139067;-61
2021/08/29 04:10:47;;;;;;;16.20;8.90;;;;;;;15.48;68.65;98719.05;232049;1211;138730;-61
2021/08/29 04:15:51;;;;;;;16.40;9.60;;;;;;;15.45;68.70;98720.54;232117;1211;139497;-61
2021/08/29 04:20:54;;;;;;;15.60;9.20;;;;;;;15.49;68.71;98717.36;232145;1211;140406;-61
2021/08/29 04:25:58;;;;;;;20.90;10.30;;;;;;;15.54;68.74;98716.88;232026;1211;138165;-61
2021/08/29 04:31:08;;;;;;;15.60;9.90;;;;;;;15.55;68.92;98712.90;232235;1211;138832;-61
2021/08/29 04:36:14;;;;;;;17.10;10.30;;;;;;;15.50;68.63;98705.85;232134;1211;138356;-61
2021/08/29 04:41:18;;;;;;;14.60;10.20;;;;;;;15.40;68.72;98704.52;232101;1211;139986;-60
2021/08/29 04:46:21;;;;;;;14.90;10.60;;;;;;;15.37;68.73;98707.31;232149;1211;139626;-61
2021/08/29 04:51:24;;;;;;;18.90;10.80;;;;;;;15.39;68.99;98708.71;232289;1211;140310;-60
2021/08/29 04:56:27;;;;;;;17.90;11.50;;;;;;;15.43;69.22;98701.22;232175;1211;139247;-61
2021/08/29 05:01:31;;;;;;;19.10;13.30;;;;;;;15.46;69.14;98702.44;232048;1211;139049;-62
2021/08/29 05:06:34;;;;;;;16.50;12.60;;;;;;;15.44;69.17;98696.67;232231;1211;138959;-60
2021/08/29 05:11:40;;;;;;;;;;;;;;;15.39;69.09;98696.80;231932;1211;138899;-60
2021/08/29 05:16:43;;;;;;;20.10;12.10;;;;;;;15.34;69.12;98698.46;232188;1211;125979;-61
2021/08/29 05:21:47;;;;;;;19.20;13.60;;;;;;;15.35;69.36;98697.23;231972;1211;139145;-60
2021/08/29 05:27:22;;;;;;;20.00;13.00;;;;;;;15.40;69.50;98699.66;232241;1211;138892;-59
2021/08/29 05:32:31;;;;;;;20.50;12.90;;;;;;;15.42;69.51;98700.98;231957;1211;138393;-62
2021/08/29 05:37:35;;;;;;;18.30;11.90;;;;;;;15.43;69.42;98701.95;232016;1211;139276;-60
2021/08/29 05:42:56;;;;;;;17.30;12.40;;;;;;;15.45;69.41;98697.73;232271;1210;141090;-61
2021/08/29 05:48:00;;;;;;;20.50;12.70;;;;;;;15.46;69.50;98704.02;232186;1211;139554;-60
2021/08/29 05:53:03;;;;;;;20.10;12.50;;;;;;;15.53;69.53;98711.57;232276;1211;139463;-61
2021/08/29 05:58:07;;;;;;;19.30;13.30;;;;;;;15.57;69.53;98709.64;232091;1211;139523;-61
2021/08/29 06:03:12;;;;;;;18.40;12.00;;;;;;;15.57;69.44;98707.02;232301;1211;139137;-60
2021/08/29 06:08:15;;;;;;;16.60;11.10;;;;;;;15.53;69.39;98704.09;232058;1211;138842;-60
2021/08/29 06:13:19;;;;;;;21.50;11.10;;;;;;;15.53;69.59;98705.36;232144;1211;141566;-60
2021/08/29 06:18:22;;;;;;;19.60;11.20;;;;;;;15.55;69.40;98706.61;231884;1207;139408;-61
2021/08/29 06:23:25;;;;;;;20.40;11.20;;;;;;;15.59;69.41;98712.70;232079;1211;139213;-60
2021/08/29 06:28:46;;;;;;;18.90;11.50;;;;;;;15.59;69.51;98707.86;232172;1211;139209;-61
2021/08/29 06:34:08;;;;;;;18.30;11.50;;;;;;;15.57;69.51;98706.61;232054;1211;140058;-63
2021/08/29 06:39:12;;;;;;;16.80;10.90;;;;;;;15.55;69.65;98712.67;232243;1211;138962;-59
2021/08/29 06:44:15;;;;;;;19.20;11.00;;;;;;;15.56;69.68;98713.30;232038;1211;140474;-59
2021/08/29 06:49:44;;;;;;;20.10;11.80;;;;;;;15.63;69.39;98721.19;232016;1211;139812;-60
2021/08/29 06:55:23;;;;;;;19.00;11.60;;;;;;;15.70;69.56;98723.73;231729;1212;139164;-61
2021/08/29 07:00:44;;;;;;;18.60;11.00;;;;;;;15.71;69.41;98730.15;232178;1211;139835;-59
2021/08/29 07:05:48;;;;;;;18.60;11.30;;;;;;;15.70;69.66;98725.75;232100;1211;139036;-60
2021/08/29 07:11:14;;;;;;;;;;;;;;;15.69;69.32;98728.52;232116;1211;140661;-59
2021/08/29 07:16:43;;;;;;;16.10;10.60;;;;;;;15.69;69.68;98730.45;232342;1211;126364;-60
2021/08/29 07:21:46;;;;;;;19.50;11.40;;;;;;;15.71;69.80;98717.80;232118;1211;139766;-60
2021/08/29 07:27:07;;;;;;;22.30;12.90;;;;;;;15.75;69.82;98717.42;232400;1211;139545;-60
2021/08/29 07:32:33;;;;;;;19.50;11.50;;;;;;;15.76;69.80;98711.89;232227;1211;139275;-60
2021/08/29 07:37:36;;;;;;;16.20;11.00;;;;;;;15.80;69.74;98716.80;232165;1211;139849;-59
2021/08/29 07:42:40;;;;;;;18.30;11.00;;;;;;;15.85;70.01;98714.34;232075;1211;139771;-59
2021/08/29 07:47:43;;;;;;;24.50;11.40;;;;;;;15.99;70.36;98706.16;232085;1211;138981;-59
2021/08/29 07:52:46;;;;;;;17.00;11.00;;;;;;;16.14;70.62;98695.30;232234;1208;140460;-59
2021/08/29 07:58:12;;;;;;;12.80;9.20;;;;;;;16.28;70.58;98693.80;232065;1211;139704;-60
2021/08/29 08:03:15;;;;;;;8.80;6.30;;;;;;;16.44;70.63;98692.55;232265;1211;141069;-59
2021/08/29 08:08:37;;;;;;;12.10;7.50;;;;;;;16.62;70.81;98691.45;232059;1208;139527;-58
2021/08/29 08:13:55;;;;;;;18.30;7.80;;;;;;;17.03;71.57;98694.96;232129;1211;138872;-59
2021/08/29 08:18:58;;;;;;;10.50;6.90;;;;;;;17.43;71.23;98688.69;232085;1211;139524;-58
2021/08/29 08:24:02;;;;;;;8.20;5.50;;;;;;;17.67;70.63;98690.52;232110;1211;139850;-59
2021/08/29 08:29:17;;;;;;;6.30;5.20;;;;;;;17.87;70.33;98693.42;232084;1211;139633;-58
2021/08/29 08:34:38;;;;;;;7.10;5.60;;;;;;;18.05;69.80;98701.02;232001;1211;138811;-57
2021/08/29 08:40:08;;;;;;;8.80;4.80;;;;;;;18.17;69.58;98697.80;232136;1211;138703;-59
2021/08/29 08:45:37;;;;;;;8.40;5.30;;;;;;;18.27;69.28;98697.98;232309;1211;139216;-59
2021/08/29 08:51:01;;;;;;;6.70;4.90;;;;;;;18.14;68.20;98699.16;232318;1210;138738;-59
2021/08/29 08:56:37;;;;;;;8.10;4.40;;;;;;;17.97;67.67;98703.01;232217;1211;138803;-59
2021/08/29 09:02:07;;;;;;;6.30;4.30;;;;;;;17.84;67.79;98699.30;232119;1210;139108;-59
2021/08/29 09:07:10;;;;;;;7.50;4.70;;;;;;;17.77;68.12;98697.45;232041;1211;139191;-61
2021/08/29 09:12:14;;;;;;;5.70;4.40;;;;;;;17.72;67.89;98701.27;232033;1211;139165;-60
2021/08/29 09:17:29;;;;;;;6.20;4.90;;;;;;;17.66;67.75;98700.33;232159;1211;138414;-59
2021/08/29 09:22:36;;;;;;;8.40;5.10;;;;;;;17.58;67.93;98703.90;232095;1211;138757;-62
2021/08/29 09:28:00;;;;;;;7.00;4.60;;;;;;;17.51;67.74;98704.21;232251;1211;139626;-61
2021/08/29 09:33:21;;;;;;;7.20;5.00;;;;;;;17.44;67.74;98710.14;232107;1211;138504;-61
2021/08/29 09:38:25;;;;;;;6.10;4.90;;;;;;;17.35;67.69;98714.17;232180;1211;138864;-59
2021/08/29 09:43:54;;;;;;;7.30;4.80;;;;;;;17.30;67.87;98713.08;232005;1211;138173;-61
2021/08/29 09:48:57;;;;;;;6.10;4.10;;;;;;;17.25;67.97;98709.08;231745;1211;138444;-62
2021/08/29 09:54:41;;;;;;;6.50;3.80;;;;;;;17.20;67.78;98705.98;232079;1211;139354;-62
2021/08/29 10:00:08;;;;;;;6.00;4.20;;;;;;;17.19;68.17;98702.58;232292;1210;138894;-62
2021/08/29 10:05:19;;;;;;;6.30;4.90;;;;;;;17.22;68.15;98699.83;232210;1211;138147;-59
2021/08/29 10:10:29;;;;;;;6.00;4.40;;;;;;;17.25;68.34;98699.30;232156;1211;138372;-61
2021/08/29 10:15:37;;;;;;;5.40;4.00;;;;;;;17.26;68.40;98693.19;232376;1211;138672;-62
2021/08/29 10:21:15;;;;;;;7.90;4.80;;;;;;;17.30;68.19;98694.95;232172;1211;139364;-60
2021/08/29 10:26:22;;;;;;;15.30;4.50;;;;;;;17.43;69.12;98695.29;231852;1211;139862;-63
2021/08/29 10:31:41;;;;;;;6.10;5.20;;;;;;;17.75;69.57;98695.31;232291;1210;138531;-64
2021/08/29 10:36:56;;;;;;;11.60;5.70;;;;;;;17.92;69.17;98695.80;232076;1211;139351;-65
2021/08/29 10:42:19;;;;;;;8.20;4.80;;;;;;;18.01;68.78;98695.37;232176;1211;138631;-64
2021/08/29 10:47:44;;;;;;;6.80;5.50;;;;;;;17.93;67.99;98688.85;232123;1211;139243;-63
2021/08/29 10:53:31;;;;;;;8.10;5.50;;;;;;;17.85;68.07;98683.07;231948;1211;139678;-65
2021/08/29 10:58:36;;;;;;;7.90;5.70;;;;;;;17.80;67.96;98679.96;231960;1211;140771;-63
2021/08/29 11:03:40;;;;;;;6.70;5.30;;;;;;;17.75;67.93;98674.16;232203;1211;138433;-63
2021/08/29 11:09:34;;;;;;;7.10;4.70;;;;;;;17.74;68.43;98667.71;231931;1211;138057;-64
2021/08/29 11:14:44;;;;;;;9.30;5.40;;;;;;;18.03;69.18;98665.16;231807;1213;139376;-64
2021/08/29 11:19:50;;;;;;;73.00;46.70;;;;;;;18.28;69.22;98662.06;232044;1211;138925;-63
2021/08/29 11:25:20;;;;;;;111.20;68.20;;;;;;;18.54;68.85;98662.00;232092;1211;139495;-65
2021/08/29 11:30:35;;;;;;;131.30;77.00;;;;;;;18.67;68.61;98659.38;232075;1211;139510;-63
2021/08/29 11:35:47;;;;;;;;;;;;;;;18.78;68.51;98662.16;231983;1211;139002;-63
2021/08/29 11:41:12;;;;;;;85.50;56.50;;;;;;;18.83;67.93;98662.80;232303;1211;125224;-67
2021/08/29 11:46:20;;;;;;;59.60;41.00;;;;;;;18.84;67.85;98661.13;232177;1211;139119;-63
2021/08/29 11:51:41;;;;;;;41.70;28.70;;;;;;;18.92;67.78;98659.94;231974;1211;139145;-66
2021/08/29 11:56:48;;;;;;;9.90;7.60;;;;;;;18.96;67.63;98660.55;231691;1214;140091;-63
2021/08/29 12:01:57;;;;;;;19.20;15.00;;;;;;;18.98;67.40;98654.08;231962;1211;139236;-61
2021/08/29 12:07:08;;;;;;;16.90;12.30;;;;;;;19.07;67.53;98649.36;231753;1211;227187;-62
2021/08/29 12:12:31;;;;;;;17.10;12.40;;;;;;;19.08;67.05;98643.02;232208;1211;138760;-60
2021/08/29 12:18:02;;;;;;;14.50;10.90;;;;;;;18.96;66.65;98641.49;232018;1208;139490;-62
2021/08/29 12:23:09;;;;;;;21.70;15.80;;;;;;;18.82;66.49;98638.50;231337;1211;139179;-59
2021/08/29 12:28:17;;;;;;;17.50;13.90;;;;;;;18.79;66.78;98637.36;231642;1211;139583;-63
2021/08/29 12:33:21;;;;;;;31.70;25.70;;;;;;;18.81;67.01;98637.71;232154;1211;138917;-63
2021/08/29 12:38:29;;;;;;;19.30;15.00;;;;;;;18.92;67.23;98631.70;231546;1212;138963;-62
2021/08/29 12:43:33;;;;;;;32.40;22.80;;;;;;;19.06;67.13;98629.94;232026;1211;138772;-62
2021/08/29 12:48:48;;;;;;;24.10;14.00;;;;;;;19.19;67.29;98620.63;231083;1211;139265;-63
2021/08/29 12:53:57;;;;;;;29.10;16.70;;;;;;;19.34;66.99;98616.39;232111;1211;140125;-62
2021/08/29 12:59:00;;;;;;;26.30;13.90;;;;;;;19.49;66.77;98609.34;231633;1211;139616;-60
2021/08/29 13:04:04;;;;;;;28.20;16.00;;;;;;;19.60;66.52;98604.56;232167;1211;139906;-60
2021/08/29 13:09:08;;;;;;;9.40;5.80;;;;;;;19.64;66.27;98606.27;231919;1211;138574;-63
2021/08/29 13:14:11;;;;;;;19.00;12.50;;;;;;;19.57;65.81;98607.41;231943;1211;138425;-65
2021/08/29 13:19:23;;;;;;;16.70;11.40;;;;;;;19.49;65.67;98610.66;232249;1211;143054;-60
2021/08/29 13:24:31;;;;;;;10.30;6.60;;;;;;;19.39;65.69;98606.67;231931;1211;138906;-61
2021/08/29 13:29:42;;;;;;;8.90;6.80;;;;;;;19.31;65.59;98607.37;232159;1211;139229;-62
2021/08/29 13:34:45;;;;;;;7.60;6.50;;;;;;;19.31;65.81;98607.80;232034;1211;139176;-62
2021/08/29 13:39:51;;;;;;;6.10;4.70;;;;;;;19.31;65.62;98603.39;231651;1211;138970;-64
2021/08/29 13:44:56;;;;;;;4.00;3.60;;;;;;;19.24;65.23;98601.10;232161;1211;138522;-64
2021/08/29 13:49:59;;;;;;;6.60;3.70;;;;;;;19.06;64.83;98602.89;232311;1211;138399;-64
2021/08/29 13:55:04;;;;;;;5.30;3.70;;;;;;;18.89;64.62;98607.54;232145;1211;138677;-61
2021/08/29 14:00:09;;;;;;;6.60;3.50;;;;;;;18.73;64.60;98610.08;232172;1211;139314;-63
2021/08/29 14:05:16;;;;;;;6.90;3.80;;;;;;;18.61;64.37;98609.53;232259;1211;139484;-63
2021/08/29 14:10:19;;;;;;;5.10;3.40;;;;;;;18.45;64.30;98611.83;232114;1208;138560;-63
2021/08/29 14:15:23;;;;;;;5.00;3.40;;;;;;;18.32;64.45;98611.73;232136;1211;139148;-63
2021/08/29 14:20:28;;;;;;;6.00;4.40;;;;;;;18.27;64.54;98619.28;232047;1211;139163;-60
2021/08/29 14:25:31;;;;;;;6.00;4.10;;;;;;;18.26;64.65;98618.86;232098;1211;138662;-60
2021/08/29 14:30:34;;;;;;;5.30;3.80;;;;;;;18.27;64.88;98617.27;232115;1211;138723;-62
2021/08/29 14:35:38;;;;;;;4.60;3.80;;;;;;;18.24;64.77;98617.91;232059;1211;139633;-62
2021/08/29 14:40:43;;;;;;;5.10;3.90;;;;;;;18.22;64.79;98612.89;232224;1211;138529;-60
2021/08/29 14:45:46;;;;;;;5.80;3.40;;;;;;;18.17;64.78;98613.39;232087;1211;138633;-61
2021/08/29 14:50:49;;;;;;;3.90;3.10;;;;;;;18.10;64.61;98612.19;232233;1211;139365;-60
2021/08/29 14:55:53;;;;;;;3.80;3.40;;;;;;;18.06;64.82;98614.20;232081;1211;138844;-60
2021/08/29 15:00:56;;;;;;;65.20;52.40;;;;;;;18.11;65.39;98611.91;232118;1211;138266;-60
2021/08/29 15:06:00;;;;;;;8.10;4.40;;;;;;;18.24;65.84;98612.55;232208;1211;138832;-61
2021/08/29 15:11:03;;;;;;;12.90;9.50;;;;;;;18.32;65.73;98610.64;232153;1211;139253;-63
2021/08/29 15:16:07;;;;;;;3.80;2.70;;;;;;;18.42;65.69;98607.67;232188;1211;139295;-61
2021/08/29 15:21:11;;;;;;;175.90;133.30;;;;;;;18.49;65.64;98601.02;231827;1211;139088;-61
2021/08/29 15:26:15;;;;;;;37.00;29.60;;;;;;;18.58;65.73;98598.70;232119;1211;139530;-63
2021/08/29 15:31:20;;;;;;;117.70;96.90;;;;;;;18.66;65.65;98595.49;232092;1211;138865;-63
2021/08/29 15:36:23;;;;;;;3.60;3.00;;;;;;;18.65;64.78;98585.88;232069;1211;139944;-61
2021/08/29 15:41:26;;;;;;;8.40;7.40;;;;;;;18.53;64.40;98585.86;232137;1211;138768;-62
2021/08/29 15:46:30;;;;;;;15.40;13.10;;;;;;;18.49;65.07;98581.16;232115;1211;138281;-63
2021/08/29 15:51:33;;;;;;;25.60;19.00;;;;;;;18.58;65.69;98575.54;231968;1211;138927;-64
2021/08/29 15:56:36;;;;;;;12.20;10.80;;;;;;;18.68;65.69;98575.73;231936;1211;139735;-61
2021/08/29 16:01:39;;;;;;;13.70;11.20;;;;;;;18.78;65.44;98573.25;232066;1211;139332;-62
2021/08/29 16:06:43;;;;;;;6.70;4.20;;;;;;;18.81;65.42;98572.06;232078;1211;138637;-61
2021/08/29 16:11:46;;;;;;;6.00;3.70;;;;;;;18.80;65.09;98574.70;232097;1211;139561;-63
2021/08/29 16:16:49;;;;;;;8.10;5.60;;;;;;;18.70;64.78;98565.98;231422;1211;138927;-61
2021/08/29 16:21:54;;;;;;;179.60;122.10;;;;;;;18.63;64.87;98564.34;232065;1211;138416;-65
2021/08/29 16:26:58;;;;;;;8.40;5.40;;;;;;;18.60;65.06;98568.27;232092;1211;139005;-62
2021/08/29 16:32:01;;;;;;;135.70;111.60;;;;;;;18.41;64.28;98570.23;231989;1211;138188;-64
2021/08/29 16:37:04;;;;;;;32.70;26.10;;;;;;;18.18;64.22;98569.30;231490;1211;139198;-62
2021/08/29 16:42:07;;;;;;;8.50;6.10;;;;;;;18.01;64.37;98575.86;231377;1212;140286;-61
2021/08/29 16:47:11;;;;;;;7.80;3.60;;;;;;;17.87;64.61;98584.80;232159;1208;139720;-62
2021/08/29 16:52:14;;;;;;;7.50;3.70;;;;;;;17.76;64.76;98580.33;232346;1211;138846;-61
2021/08/29 16:57:19;;;;;;;4.20;3.70;;;;;;;17.65;64.94;98581.55;232203;1211;139191;-63
2021/08/29 17:02:23;;;;;;;4.40;3.70;;;;;;;17.54;64.92;98589.34;232036;1211;138332;-62
2021/08/29 17:07:26;;;;;;;4.70;3.40;;;;;;;17.42;65.06;98592.77;231859;1211;138642;-61
2021/08/29 17:12:29;;;;;;;6.80;3.40;;;;;;;17.30;65.23;98604.36;232060;1211;138654;-62
2021/08/29 17:17:34;;;;;;;5.00;3.40;;;;;;;17.23;65.54;98619.77;232130;1211;142267;-62
2021/08/29 17:22:37;;;;;;;4.30;3.40;;;;;;;17.21;65.64;98624.96;232071;1211;139408;-61
2021/08/29 17:27:40;;;;;;;4.90;3.60;;;;;;;17.21;65.63;98620.00;231890;1211;139094;-62
2021/08/29 17:32:44;;;;;;;4.40;3.70;;;;;;;17.17;65.44;98627.48;232040;1211;138859;-63
2021/08/29 17:37:47;;;;;;;157.40;90.10;;;;;;;17.11;65.68;98634.33;231845;1211;138189;-62
2021/08/29 17:42:50;;;;;;;16.00;11.70;;;;;;;17.15;66.08;98637.02;231634;1211;139045;-63
2021/08/29 17:47:54;;;;;;;7.20;5.30;;;;;;;17.19;65.71;98636.85;232065;1211;140577;-62
2021/08/29 17:52:57;;;;;;;4.70;3.50;;;;;;;17.14;65.33;98638.42;232145;1211;138675;-63
2021/08/29 17:58:00;;;;;;;6.10;4.20;;;;;;;17.11;65.72;98646.91;232273;1210;138503;-61
2021/08/29 18:03:04;;;;;;;77.90;50.30;;;;;;;17.14;66.67;98653.27;231815;1211;138977;-60
2021/08/29 18:08:08;;;;;;;50.60;31.90;;;;;;;17.51;68.05;98658.63;231818;1211;139877;-62
2021/08/29 18:13:11;;;;;;;45.80;31.30;;;;;;;17.81;67.87;98660.65;232215;1211;139702;-63
2021/08/29 18:18:15;;;;;;;658.10;492.40;;;;;;;18.05;67.76;98664.75;232183;1211;139471;-61
2021/08/29 18:23:19;;;;;;;54.30;39.50;;;;;;;18.24;67.49;98671.83;231909;1211;139229;-61
2021/08/29 18:28:23;;;;;;;67.30;47.00;;;;;;;18.38;67.36;98674.69;232056;1211;139250;-60
2021/08/29 18:33:26;;;;;;;365.70;256.50;;;;;;;18.46;66.88;98666.38;231945;1211;138717;-63
2021/08/29 18:38:30;;;;;;;48.50;37.10;;;;;;;18.29;65.58;98665.05;232107;1211;139224;-63
2021/08/29 18:43:35;;;;;;;6.00;4.80;;;;;;;18.06;65.21;98665.19;232123;1211;138850;-62
2021/08/29 18:48:39;;;;;;;7.50;4.90;;;;;;;17.80;64.76;98658.23;232108;1211;139028;-64
2021/08/29 18:53:42;;;;;;;6.80;4.90;;;;;;;17.57;65.03;98654.88;232066;1211;138792;-62
2021/08/29 18:58:45;;;;;;;8.90;5.30;;;;;;;17.38;64.96;98653.98;232281;1211;138690;-60
2021/08/29 19:03:49;;;;;;;9.40;5.50;;;;;;;17.21;65.29;98650.57;231884;1211;138716;-60
2021/08/29 19:08:52;;;;;;;8.40;5.80;;;;;;;17.07;65.42;98640.30;232122;1211;138582;-61
2021/08/29 19:13:56;;;;;;;8.00;4.80;;;;;;;16.95;65.68;98637.17;232190;1211;139454;-61
2021/08/29 19:21:56;;;;;;;7.00;5.30;;;;;;;16.86;65.89;98635.13;229770;1219;657054;-64
2021/08/29 19:26:59;;;;;;;7.30;5.30;;;;;;;16.78;66.15;98630.87;233275;1207;138094;-64
2021/08/29 19:32:04;;;;;;;7.90;6.00;;;;;;;16.73;66.07;98629.36;233448;1201;139307;-65
2021/08/29 19:37:07;;;;;;;9.00;6.00;;;;;;;16.67;66.06;98629.73;233535;1202;140972;-64
2021/08/29 19:42:10;;;;;;;9.60;5.60;;;;;;;16.60;66.18;98633.05;233357;1201;137619;-63
2021/08/29 19:47:12;;;;;;;7.10;5.50;;;;;;;16.55;66.37;98627.28;233737;1201;138166;-62
2021/08/29 19:52:16;;;;;;;7.60;3.90;;;;;;;16.50;66.48;98624.86;233689;1202;139154;-64
2021/08/29 19:57:19;;;;;;;6.10;3.90;;;;;;;16.47;66.40;98622.48;233664;1202;138236;-65
2021/08/29 20:02:21;;;;;;;5.30;4.40;;;;;;;16.44;66.40;98632.45;233199;1202;138875;-65
2021/08/29 20:07:25;;;;;;;7.90;4.60;;;;;;;16.40;66.44;98634.96;233707;1202;138703;-64
2021/08/29 20:12:28;;;;;;;6.10;4.20;;;;;;;16.35;66.53;98631.95;233560;1203;138531;-65
2021/08/29 20:17:31;;;;;;;6.30;4.30;;;;;;;16.31;66.59;98626.42;233621;1204;138069;-65
2021/08/29 20:22:34;;;;;;;5.10;3.80;;;;;;;16.27;66.60;98618.26;233533;1201;137661;-63
2021/08/29 20:27:37;;;;;;;5.70;3.50;;;;;;;16.25;66.73;98612.69;233743;1202;138307;-63
2021/08/29 20:32:40;;;;;;;4.80;4.10;;;;;;;16.26;66.70;98617.56;233560;1203;138277;-61
2021/08/29 20:37:43;;;;;;;5.90;4.30;;;;;;;16.29;66.85;98619.41;233362;1203;139382;-61
2021/08/29 20:42:47;;;;;;;5.20;4.30;;;;;;;16.30;66.79;98618.62;233285;1202;137512;-61
2021/08/29 20:47:50;;;;;;;7.50;4.40;;;;;;;16.27;66.79;98621.24;233415;1205;137991;-63
2021/08/29 20:52:53;;;;;;;10.60;4.60;;;;;;;16.23;66.90;98623.03;233647;1204;138237;-64
2021/08/29 20:57:56;;;;;;;4.60;3.80;;;;;;;16.16;66.83;98622.09;233497;1204;138617;-62
2021/08/29 21:02:59;;;;;;;5.50;3.90;;;;;;;16.15;67.14;98610.52;233568;1202;139258;-64
2021/08/29 21:08:04;;;;;;;8.50;4.40;;;;;;;16.15;67.18;98608.79;233696;1202;139174;-63
2021/08/29 21:13:09;;;;;;;5.70;4.20;;;;;;;16.14;67.33;98603.27;233400;1202;138668;-62
2021/08/29 21:18:13;;;;;;;5.20;4.20;;;;;;;16.12;67.26;98598.80;233537;1204;139072;-61
2021/08/29 21:23:16;;;;;;;4.80;4.30;;;;;;;16.11;67.54;98592.68;233159;1202;138577;-61
2021/08/29 21:28:20;;;;;;;3.90;3.50;;;;;;;16.09;67.68;98586.73;233569;1202;137349;-64
2021/08/29 21:33:23;;;;;;;4.80;3.60;;;;;;;16.08;67.68;98580.58;233562;1202;138918;-62
2021/08/29 21:38:26;;;;;;;4.90;4.00;;;;;;;16.08;67.66;98573.58;233514;1204;138375;-63
2021/08/29 21:43:29;;;;;;;4.90;3.70;;;;;;;16.06;67.76;98576.14;233567;1202;138664;-63
2021/08/29 21:48:32;;;;;;;4.70;4.20;;;;;;;16.03;67.83;98575.16;233683;1202;138546;-62
2021/08/29 21:53:35;;;;;;;4.80;4.30;;;;;;;16.00;67.80;98575.05;233563;1202;138600;-64
2021/08/29 21:58:39;;;;;;;4.00;3.60;;;;;;;15.99;68.17;98582.69;233590;1203;138041;-63
2021/08/29 22:03:42;;;;;;;6.00;3.50;;;;;;;15.99;68.13;98594.30;233305;1200;139180;-64
2021/08/29 22:08:50;;;;;;;4.30;3.50;;;;;;;16.00;68.24;98588.27;232018;1204;138910;-63
2021/08/29 22:13:54;;;;;;;4.30;3.90;;;;;;;16.00;68.16;98582.26;231947;1203;139063;-65
2021/08/29 22:18:59;;;;;;;4.30;3.40;;;;;;;15.99;68.28;98567.85;232493;1202;138338;-64
2021/08/29 22:24:03;;;;;;;5.50;3.90;;;;;;;15.92;68.18;98571.30;233482;1201;139266;-64
2021/08/29 22:29:07;;;;;;;5.90;3.50;;;;;;;15.85;68.19;98578.95;232666;1205;137924;-63
2021/08/29 22:34:11;;;;;;;6.20;3.40;;;;;;;15.81;68.48;98557.13;232243;1202;138828;-62
2021/08/29 22:39:19;;;;;;;4.20;3.50;;;;;;;15.80;68.55;98532.66;233603;1203;138664;-63
2021/08/29 22:44:25;;;;;;;6.00;4.10;;;;;;;15.83;68.73;98541.50;232693;1203;137976;-60
2021/08/29 22:49:29;;;;;;;4.80;3.90;;;;;;;15.85;68.60;98551.53;232817;1204;137959;-59
2021/08/29 22:54:35;;;;;;;5.50;4.20;;;;;;;15.85;68.76;98548.84;233540;1203;138325;-59
2021/08/29 22:59:38;;;;;;;4.90;3.80;;;;;;;15.82;68.75;98549.67;233345;1201;138439;-59
2021/08/29 23:04:44;;;;;;;4.50;3.80;;;;;;;15.81;68.71;98544.47;233426;1202;139245;-60
2021/08/29 23:09:48;;;;;;;5.90;4.40;;;;;;;15.81;68.73;98542.16;233474;1204;139688;-59
2021/08/29 23:14:51;;;;;;;6.50;4.40;;;;;;;15.84;69.02;98546.82;233270;1202;138093;-61
2021/08/29 23:19:54;;;;;;;6.10;4.90;;;;;;;15.92;69.07;98545.27;233266;1199;138119;-61
2021/08/29 23:24:57;;;;;;;6.30;5.20;;;;;;;15.88;68.91;98543.80;233605;1202;138200;-64